createdAt,value
2022-08-18T00:01:47.596Z,47.05
2022-08-18T00:04:34.804Z,47.27
2022-08-18T00:07:02.607Z,47.17
2022-08-18T00:09:32.572Z,47.46
2022-08-18T00:12:01.991Z,47.10
2022-08-18T00:14:28.947Z,47.40
2022-08-18T00:16:55.542Z,46.99
2022-08-18T00:19:45.933Z,47.34
2022-08-18T00:22:14.814Z,47.47
2022-08-18T00:24:48.102Z,46.82
2022-08-18T00:27:19.547Z,46.93
2022-08-18T00:29:48.971Z,46.81
2022-08-18T00:32:19.795Z,47.39
2022-08-18T00:34:46.307Z,46.96
2022-08-18T00:37:12.823Z,46.83
2022-08-18T00:39:45.997Z,46.98
2022-08-18T00:42:28.685Z,47.36
2022-08-18T00:45:01.890Z,47.02
2022-08-18T00:47:41.360Z,47.01
2022-08-18T00:50:16.516Z,47.47
2022-08-18T00:52:51.678Z,47.24
2022-08-18T00:55:19.430Z,47.21
2022-08-18T00:57:48.436Z,46.79
2022-08-18T01:00:15.336Z,47.14
2022-08-18T01:02:49.796Z,47.62
2022-08-18T01:05:41.126Z,47.73
2022-08-18T01:08:11.722Z,47.15
2022-08-18T01:10:39.543Z,47.13
2022-08-18T01:13:06.818Z,47.33
2022-08-18T01:15:34.036Z,47.30
2022-08-18T01:18:22.976Z,47.89
2022-08-18T01:21:27.354Z,47.95
2022-08-18T01:23:55.167Z,47.44
2022-08-18T01:26:24.428Z,47.40
2022-08-18T01:28:52.310Z,47.45
2022-08-18T01:31:38.291Z,48.22
2022-08-18T01:34:10.442Z,48.05
2022-08-18T01:36:40.645Z,47.70
2022-08-18T01:39:09.451Z,47.62
2022-08-18T01:41:36.160Z,47.59
2022-08-18T01:44:03.497Z,47.65
2022-08-18T01:46:33.657Z,47.75
2022-08-18T01:49:01.099Z,47.82
2022-08-18T01:51:39.944Z,47.68
2022-08-18T01:54:12.307Z,47.72
2022-08-18T01:56:40.771Z,47.59
2022-08-18T01:59:10.405Z,47.36
2022-08-18T02:01:43.304Z,47.61
2022-08-18T02:04:34.398Z,47.34
2022-08-18T02:07:05.464Z,47.52
2022-08-18T02:09:33.562Z,47.47
2022-08-18T02:12:01.183Z,47.83
2022-08-18T02:14:27.834Z,47.93
2022-08-18T02:17:02.117Z,47.87
2022-08-18T02:19:33.977Z,48.67
2022-08-18T02:22:00.592Z,47.86
2022-08-18T02:24:27.152Z,48.17
2022-08-18T02:26:53.682Z,48.37
2022-08-18T02:29:20.175Z,48.35
2022-08-18T02:31:46.699Z,48.74
2022-08-18T02:34:13.255Z,48.51
2022-08-18T02:36:39.724Z,48.70
2022-08-18T02:39:06.250Z,48.65
2022-08-18T02:41:33.110Z,48.70
2022-08-18T02:44:00.172Z,48.74
2022-08-18T02:46:29.296Z,48.54
2022-08-18T02:48:57.253Z,48.74
2022-08-18T02:51:25.953Z,48.81
2022-08-18T02:53:53.847Z,48.73
2022-08-18T02:56:40.242Z,48.93
2022-08-18T02:59:13.696Z,48.59
2022-08-18T03:01:47.722Z,49.03
2022-08-18T03:04:17.516Z,48.76
2022-08-18T03:06:45.384Z,48.35
2022-08-18T03:09:15.264Z,48.61
2022-08-18T03:11:43.524Z,48.92
2022-08-18T03:14:11.465Z,48.95
2022-08-18T03:16:54.521Z,48.88
2022-08-18T03:19:31.906Z,49.55
2022-08-18T03:22:03.278Z,48.72
2022-08-18T03:24:32.169Z,49.15
2022-08-18T03:26:58.958Z,49.49
2022-08-18T03:29:31.334Z,49.53
2022-08-18T03:31:59.415Z,49.76
2022-08-18T03:34:26.002Z,49.88
2022-08-18T03:36:52.570Z,50.02
2022-08-18T03:39:20.015Z,50.03
2022-08-18T03:41:58.241Z,49.81
2022-08-18T03:44:27.855Z,50.36
2022-08-18T03:46:54.291Z,50.24
2022-08-18T03:49:20.989Z,50.01
2022-08-18T03:51:48.622Z,50.36
2022-08-18T03:54:17.857Z,50.63
2022-08-18T03:56:46.705Z,50.51
2022-08-18T03:59:17.951Z,50.75
2022-08-18T04:01:45.921Z,50.64
2022-08-18T04:04:16.717Z,50.62
2022-08-18T04:06:55.795Z,51.47
2022-08-18T04:09:24.679Z,50.46
2022-08-18T04:11:51.952Z,50.57
2022-08-18T04:14:21.627Z,50.78
2022-08-18T04:16:49.199Z,50.38
2022-08-18T04:19:26.554Z,50.67
2022-08-18T04:21:56.436Z,50.47
2022-08-18T04:24:23.383Z,50.63
2022-08-18T04:26:50.110Z,50.34
2022-08-18T04:29:21.178Z,50.57
2022-08-18T04:31:49.400Z,50.23
2022-08-18T04:34:16.409Z,50.28
2022-08-18T04:36:43.131Z,50.45
2022-08-18T04:39:11.671Z,50.34
2022-08-18T04:41:38.760Z,50.43
2022-08-18T04:44:08.618Z,50.51
2022-08-18T04:46:40.049Z,50.44
2022-08-18T04:49:08.097Z,50.53
2022-08-18T04:52:37.140Z,50.54
2022-08-18T04:54:24.926Z,50.85
2022-08-18T04:56:51.657Z,50.24
2022-08-18T04:59:19.286Z,50.23
2022-08-18T05:01:48.176Z,50.40
2022-08-18T05:04:16.883Z,50.42
2022-08-18T05:06:43.991Z,50.25
2022-08-18T05:09:13.299Z,49.98
2022-08-18T05:11:44.492Z,50.02
2022-08-18T05:14:11.729Z,50.16
2022-08-18T05:16:47.846Z,50.08
2022-08-18T05:19:27.264Z,50.38
2022-08-18T05:22:17.167Z,49.88
2022-08-18T05:24:45.398Z,49.87
2022-08-18T05:27:13.033Z,49.95
2022-08-18T05:29:42.001Z,50.07
2022-08-18T05:32:38.274Z,49.87
2022-08-18T05:35:33.319Z,50.31
2022-08-18T05:38:24.475Z,50.13
2022-08-18T05:41:14.029Z,50.32
2022-08-18T05:43:52.119Z,50.21
2022-08-18T05:46:22.009Z,49.80
2022-08-18T05:48:48.796Z,49.95
2022-08-18T05:51:28.125Z,50.44
2022-08-18T05:54:13.169Z,49.72
2022-08-18T05:56:49.013Z,49.76
2022-08-18T05:59:31.670Z,50.37
2022-08-18T06:02:08.620Z,50.32
2022-08-18T06:04:44.380Z,50.24
2022-08-18T06:07:15.818Z,50.18
2022-08-18T06:09:50.794Z,50.32
2022-08-18T06:12:33.526Z,50.28
2022-08-18T06:15:11.793Z,50.40
2022-08-18T06:17:59.023Z,50.36
2022-08-18T06:20:34.589Z,50.62
2022-08-18T06:23:06.248Z,50.66
2022-08-18T06:29:38.389Z,49.70
2022-08-18T06:32:52.340Z,49.98
2022-08-18T06:42:41.020Z,49.74
2022-08-18T06:45:12.911Z,49.98
2022-08-18T06:55:38.019Z,49.53
2022-08-18T06:58:21.426Z,49.54
2022-08-18T07:01:36.637Z,50.07
2022-08-18T07:04:03.315Z,49.44
2022-08-18T07:06:59.641Z,49.75
2022-08-18T07:09:33.888Z,49.95
2022-08-18T07:12:09.145Z,49.99
2022-08-18T07:14:50.594Z,50.32
2022-08-18T07:17:43.131Z,50.09
2022-08-18T07:20:25.101Z,50.38
2022-08-18T07:22:56.798Z,50.09
2022-08-18T07:25:37.968Z,50.07
2022-08-18T07:28:07.996Z,49.92
2022-08-18T07:30:37.793Z,50.03
2022-08-18T07:33:22.574Z,50.21
2022-08-18T07:35:57.003Z,49.88
2022-08-18T07:38:51.764Z,50.03
2022-08-18T07:41:30.521Z,49.72
2022-08-18T07:44:13.559Z,49.95
2022-08-18T07:47:21.853Z,49.84
2022-08-18T07:50:16.508Z,49.70
2022-08-18T07:52:47.019Z,49.83
2022-08-18T07:55:24.511Z,49.53
2022-08-18T07:58:03.655Z,49.77
2022-08-18T08:03:32.650Z,49.54
2022-08-18T08:06:14.992Z,49.93
2022-08-18T08:08:56.938Z,49.79
2022-08-18T08:26:37.044Z,49.26
2022-08-18T08:29:27.739Z,49.45
2022-08-18T08:31:57.587Z,49.10
2022-08-18T08:34:35.249Z,49.09
2022-08-18T08:37:05.355Z,48.98
2022-08-18T08:39:54.061Z,49.31
2022-08-18T08:42:37.462Z,49.55
2022-08-18T08:45:31.040Z,49.47
2022-08-18T08:48:09.228Z,49.19
2022-08-18T08:50:45.378Z,48.90
2022-08-18T08:53:34.223Z,49.29
2022-08-18T08:56:09.701Z,48.55
2022-08-18T08:58:51.429Z,48.40
2022-08-18T09:01:34.727Z,48.26
2022-08-18T09:04:19.606Z,48.17
2022-08-18T09:07:08.265Z,48.08
2022-08-18T09:09:56.483Z,47.89
2022-08-18T09:12:44.836Z,47.54
2022-08-18T09:15:29.528Z,47.80
2022-08-18T09:18:05.298Z,47.76
2022-08-18T09:21:05.274Z,47.69
2022-08-18T09:23:46.828Z,47.56
2022-08-18T09:26:39.980Z,47.80
2022-08-18T09:29:45.495Z,47.48
2022-08-18T09:32:23.031Z,47.42
2022-08-18T09:35:08.909Z,47.70
2022-08-18T09:38:13.508Z,47.06
2022-08-18T09:41:17.665Z,47.15
2022-08-18T09:44:11.933Z,46.55
2022-08-18T09:46:48.024Z,46.65
2022-08-18T09:49:24.879Z,46.28
2022-08-18T09:51:56.085Z,46.76
2022-08-18T09:54:25.626Z,46.36
2022-08-18T09:56:55.802Z,46.34
2022-08-18T10:02:30.112Z,46.35
2022-08-18T10:05:15.510Z,46.50
2022-08-18T10:07:45.064Z,46.50
2022-08-18T10:11:00.726Z,46.10
2022-08-18T10:13:49.627Z,45.82
2022-08-18T10:16:38.242Z,45.65
2022-08-18T10:19:33.844Z,45.71
2022-08-18T10:22:09.340Z,45.78
2022-08-18T10:24:38.110Z,45.93
2022-08-18T10:27:12.014Z,45.89
2022-08-18T10:29:46.439Z,45.70
2022-08-18T10:32:14.115Z,45.36
2022-08-18T10:34:51.858Z,45.16
2022-08-18T10:37:19.409Z,45.73
2022-08-18T10:40:04.651Z,45.11
2022-08-18T10:43:15.003Z,45.02
2022-08-18T10:48:40.337Z,44.91
2022-08-18T10:55:00.839Z,44.23
2022-08-18T10:58:00.503Z,43.74
2022-08-18T11:00:45.226Z,43.73
2022-08-18T11:06:27.811Z,43.50
2022-08-18T11:09:01.100Z,42.87
2022-08-18T11:12:01.580Z,43.02
2022-08-18T11:14:59.629Z,42.84
2022-08-18T11:17:40.540Z,42.70
2022-08-18T11:20:13.117Z,42.62
2022-08-18T11:22:56.408Z,41.97
2022-08-18T11:25:25.023Z,42.18
2022-08-18T11:27:54.768Z,42.09
2022-08-18T11:30:31.022Z,42.37
2022-08-18T11:33:02.568Z,42.35
2022-08-18T11:35:34.236Z,41.75
2022-08-18T11:38:12.332Z,41.42
2022-08-18T11:43:40.937Z,41.41
2022-08-18T11:46:29.552Z,41.92
2022-08-18T11:48:59.977Z,41.65
2022-08-18T11:51:32.618Z,42.09
2022-08-18T11:54:00.994Z,41.91
2022-08-18T11:56:32.401Z,41.44
2022-08-18T11:59:52.581Z,41.16
2022-08-18T12:02:20.638Z,41.58
2022-08-18T12:04:52.866Z,40.77
2022-08-18T12:07:33.862Z,41.21
2022-08-18T12:10:26.505Z,41.24
2022-08-18T12:12:57.562Z,41.37
2022-08-18T12:15:29.574Z,41.32
2022-08-18T12:18:11.051Z,40.89
2022-08-18T12:20:52.446Z,41.04
2022-08-18T12:23:18.948Z,40.79
2022-08-18T12:25:45.420Z,41.32
2022-08-18T12:28:12.070Z,41.12
2022-08-18T12:30:42.032Z,40.63
2022-08-18T12:33:10.500Z,40.71
2022-08-18T12:35:41.997Z,39.60
2022-08-18T12:38:13.508Z,39.93
2022-08-18T12:40:41.896Z,39.71
2022-08-18T12:43:09.095Z,39.41
2022-08-18T12:56:36.828Z,39.15
2022-08-18T12:59:05.929Z,38.52
2022-08-18T13:01:33.643Z,38.93
2022-08-18T13:04:12.575Z,38.99
2022-08-18T13:06:59.905Z,38.83
2022-08-18T13:09:35.143Z,38.41
2022-08-18T13:12:18.398Z,38.32
2022-08-18T13:14:46.139Z,37.81
2022-08-18T13:17:32.669Z,37.92
2022-08-18T13:20:09.559Z,37.47
2022-08-18T13:22:40.857Z,37.48
2022-08-18T13:25:09.894Z,37.81
2022-08-18T13:27:37.577Z,37.30
2022-08-18T13:30:31.020Z,37.73
2022-08-18T13:33:02.386Z,37.92
2022-08-18T13:35:38.114Z,37.91
2022-08-18T13:38:15.649Z,37.53
2022-08-18T13:40:48.546Z,37.41
2022-08-18T13:43:17.453Z,36.97
2022-08-18T13:45:46.966Z,36.97
2022-08-18T13:48:19.807Z,37.29
2022-08-18T13:50:47.037Z,37.43
2022-08-18T13:53:19.842Z,37.50
2022-08-18T13:55:46.786Z,37.56
2022-08-18T13:58:17.592Z,37.44
2022-08-18T14:00:52.416Z,37.29
2022-08-18T14:03:42.345Z,36.94
2022-08-18T14:06:11.590Z,37.47
2022-08-18T14:08:40.308Z,37.20
2022-08-18T14:11:07.040Z,36.72
2022-08-18T14:13:38.132Z,36.98
2022-08-18T14:16:10.959Z,36.89
2022-08-18T14:18:42.815Z,36.93
2022-08-18T14:21:30.841Z,36.94
2022-08-18T14:24:15.573Z,36.69
2022-08-18T14:26:50.975Z,37.03
2022-08-18T14:29:45.529Z,36.99
2022-08-18T14:32:06.530Z,37.29
2022-08-18T14:34:33.051Z,36.79
2022-08-18T14:36:59.586Z,37.25
2022-08-18T14:39:26.128Z,36.69
2022-08-18T14:41:56.162Z,36.77
2022-08-18T14:44:25.471Z,36.95
2022-08-18T14:46:58.482Z,36.54
2022-08-18T14:49:28.660Z,36.49
2022-08-18T14:52:00.593Z,36.40
2022-08-18T14:54:28.693Z,36.24
2022-08-18T14:56:59.841Z,36.41
2022-08-18T14:59:28.409Z,36.42
2022-08-18T15:01:55.074Z,36.30
2022-08-18T15:04:21.853Z,36.33
2022-08-18T15:06:56.365Z,35.99
2022-08-18T15:09:27.431Z,36.22
2022-08-18T15:11:56.280Z,35.76
2022-08-18T15:14:26.664Z,35.60
2022-08-18T15:17:11.997Z,35.37
2022-08-18T15:25:58.948Z,35.51
2022-08-18T15:28:27.888Z,35.54
2022-08-18T15:33:41.999Z,35.70
2022-08-18T15:36:10.237Z,35.38
2022-08-18T15:38:36.917Z,35.60
2022-08-18T15:41:06.146Z,35.40
2022-08-18T15:43:45.803Z,35.44
2022-08-18T15:46:13.989Z,35.38
2022-08-18T15:48:43.670Z,35.11
2022-08-18T15:51:11.703Z,35.55
2022-08-18T15:53:44.592Z,35.34
2022-08-18T15:56:14.615Z,34.99
2022-08-18T15:58:41.122Z,35.00
2022-08-18T16:01:29.751Z,35.18
2022-08-18T16:03:56.712Z,35.18
2022-08-18T16:06:27.682Z,34.27
2022-08-18T16:09:00.356Z,34.07
2022-08-18T16:11:29.203Z,35.37
2022-08-18T16:13:58.827Z,33.96
2022-08-18T16:16:29.253Z,34.43
2022-08-18T16:19:04.457Z,34.54
2022-08-18T16:21:31.145Z,34.23
2022-08-18T16:23:58.258Z,34.44
2022-08-18T16:26:24.973Z,34.01
2022-08-18T16:28:52.888Z,34.15
2022-08-18T16:31:26.273Z,33.86
2022-08-18T16:33:54.901Z,33.99
2022-08-18T16:36:25.411Z,34.07
2022-08-18T16:38:53.572Z,34.38
2022-08-18T16:41:20.348Z,34.39
2022-08-18T16:43:47.441Z,34.09
2022-08-18T16:46:18.246Z,34.16
2022-08-18T16:48:45.839Z,34.24
2022-08-18T16:51:16.091Z,34.31
2022-08-18T16:53:43.229Z,34.45
2022-08-18T16:56:18.890Z,34.26
2022-08-18T16:59:05.261Z,34.54
2022-08-18T17:01:51.769Z,34.65
2022-08-18T17:04:25.841Z,34.49
2022-08-18T17:06:52.449Z,34.29
2022-08-18T17:09:19.980Z,34.57
2022-08-18T17:11:51.595Z,34.15
2022-08-18T17:14:23.136Z,34.59
2022-08-18T17:16:54.301Z,34.72
2022-08-18T17:19:23.310Z,34.63
2022-08-18T17:21:49.870Z,34.42
2022-08-18T17:24:18.104Z,34.39
2022-08-18T17:27:03.993Z,34.83
2022-08-18T17:29:48.236Z,34.91
2022-08-18T17:35:21.074Z,34.83
2022-08-18T17:38:15.102Z,35.22
2022-08-18T17:40:50.858Z,34.66
2022-08-18T17:43:20.117Z,34.86
2022-08-18T17:45:53.530Z,34.82
2022-08-18T17:48:32.170Z,35.36
2022-08-18T17:51:31.124Z,34.99
2022-08-18T17:54:00.953Z,35.12
2022-08-18T17:56:42.350Z,35.18
2022-08-18T17:59:45.514Z,35.34
2022-08-18T18:02:29.316Z,35.26
2022-08-18T18:05:07.575Z,35.55
2022-08-18T18:07:43.246Z,35.29
2022-08-18T18:10:14.295Z,35.49
2022-08-18T18:12:41.582Z,35.84
2022-08-18T18:15:12.043Z,36.00
2022-08-18T18:17:43.151Z,36.05
2022-08-18T18:20:24.509Z,35.87
2022-08-18T18:22:52.103Z,36.03
2022-08-18T18:25:34.716Z,35.55
2022-08-18T18:28:02.197Z,35.99
2022-08-18T18:30:32.743Z,36.40
2022-08-18T18:33:04.502Z,36.12
2022-08-18T18:35:53.265Z,36.17
2022-08-18T18:38:30.583Z,36.56
2022-08-18T18:41:16.961Z,37.08
2022-08-18T18:43:46.966Z,36.66
2022-08-18T18:46:35.211Z,37.19
2022-08-18T18:49:20.365Z,36.68
2022-08-18T18:51:52.797Z,36.96
2022-08-18T18:54:38.491Z,37.35
2022-08-18T18:57:31.953Z,37.18
2022-08-18T19:00:10.526Z,37.45
2022-08-18T19:02:49.064Z,38.02
2022-08-18T19:05:23.122Z,37.38
2022-08-18T19:08:14.197Z,38.13
2022-08-18T19:11:03.041Z,38.27
2022-08-18T19:13:39.717Z,38.33
2022-08-18T19:16:23.355Z,38.55
2022-08-18T19:18:57.656Z,38.41
2022-08-18T19:22:04.370Z,38.17
2022-08-18T19:24:39.288Z,38.16
2022-08-18T19:27:25.414Z,38.30
2022-08-18T19:29:56.276Z,38.34
2022-08-18T19:32:32.447Z,38.50
2022-08-18T19:35:01.167Z,38.57
2022-08-18T19:38:04.559Z,38.52
2022-08-18T19:40:52.846Z,38.76
2022-08-18T19:43:36.111Z,39.08
2022-08-18T19:46:12.061Z,39.05
2022-08-18T19:48:51.511Z,39.11
2022-08-18T19:51:39.226Z,39.38
2022-08-18T19:54:53.430Z,39.42
2022-08-18T19:57:22.414Z,39.03
2022-08-18T20:00:12.001Z,39.67
2022-08-18T20:03:15.791Z,39.81
2022-08-18T20:05:58.816Z,39.75
2022-08-18T20:09:09.613Z,40.09
2022-08-18T20:12:13.611Z,39.99
2022-08-18T20:14:42.970Z,39.88
2022-08-18T20:17:09.399Z,40.07
2022-08-18T20:19:35.917Z,39.97
2022-08-18T20:22:24.673Z,40.35
2022-08-18T20:25:27.771Z,40.57
2022-08-18T20:28:23.545Z,40.60
2022-08-18T20:31:06.083Z,40.90
2022-08-18T20:33:39.247Z,40.80
2022-08-18T20:36:24.495Z,40.54
2022-08-18T20:38:53.749Z,40.82
2022-08-18T20:41:23.205Z,41.23
2022-08-18T20:43:55.479Z,41.28
2022-08-18T20:46:36.219Z,41.58
2022-08-18T20:49:43.846Z,41.72
2022-08-18T20:52:15.246Z,41.12
2022-08-18T20:54:58.506Z,42.04
2022-08-18T20:57:34.878Z,42.24
2022-08-18T21:00:26.760Z,42.27
2022-08-18T21:02:59.481Z,41.88
2022-08-18T21:05:34.070Z,42.18
2022-08-18T21:08:03.272Z,42.36
2022-08-18T21:10:32.613Z,41.83
2022-08-18T21:13:05.608Z,42.33
2022-08-18T21:15:38.296Z,42.73
2022-08-18T21:18:16.443Z,42.46
2022-08-18T21:20:42.994Z,42.07
2022-08-18T21:23:12.913Z,42.45
2022-08-18T21:25:55.487Z,42.68
2022-08-18T21:28:25.369Z,42.33
2022-08-18T21:31:29.180Z,42.96
2022-08-18T21:33:57.353Z,42.50
2022-08-18T21:36:31.429Z,42.61
2022-08-18T21:39:15.882Z,42.99
2022-08-18T21:41:48.176Z,42.83
2022-08-18T21:44:16.822Z,42.54
2022-08-18T21:46:45.562Z,42.67
2022-08-18T21:49:12.499Z,42.62
2022-08-18T21:51:45.927Z,43.16
2022-08-18T21:54:18.176Z,43.42
2022-08-18T21:56:44.914Z,42.94
2022-08-18T21:59:17.179Z,43.60
2022-08-18T22:01:53.735Z,43.64
2022-08-18T22:04:33.591Z,44.18
2022-08-18T22:07:03.922Z,43.83
2022-08-18T22:09:53.686Z,43.84
2022-08-18T22:12:49.363Z,44.03
2022-08-18T22:15:36.501Z,44.26
2022-08-18T22:18:28.613Z,44.62
2022-08-18T22:20:57.694Z,44.33
2022-08-18T22:23:45.258Z,43.98
2022-08-18T22:26:16.464Z,44.73
2022-08-18T22:28:42.941Z,44.55
2022-08-18T22:31:09.464Z,44.88
2022-08-18T22:33:36.013Z,44.67
2022-08-18T22:36:03.795Z,44.80
2022-08-18T22:38:30.792Z,44.74
2022-08-18T22:40:59.694Z,45.29
2022-08-18T22:43:26.388Z,44.90
2022-08-18T22:45:53.321Z,44.81
2022-08-18T22:48:19.839Z,44.98
2022-08-18T22:50:46.883Z,44.99
2022-08-18T22:53:14.555Z,45.02
2022-08-18T22:55:41.490Z,44.79
2022-08-18T22:58:08.506Z,45.06
2022-08-18T23:00:37.910Z,44.99
2022-08-18T23:03:06.837Z,44.98
2022-08-18T23:05:33.365Z,45.28
2022-08-18T23:07:59.845Z,45.27
2022-08-18T23:10:26.592Z,45.08
2022-08-18T23:12:53.281Z,45.20
2022-08-18T23:15:20.316Z,45.50
2022-08-18T23:17:47.210Z,45.26
2022-08-18T23:20:19.172Z,45.45
2022-08-18T23:22:47.838Z,45.46
2022-08-18T23:25:14.499Z,45.36
2022-08-18T23:27:42.896Z,45.43
2022-08-18T23:30:09.638Z,45.30
2022-08-18T23:32:36.367Z,44.86
2022-08-18T23:35:02.987Z,45.56
2022-08-18T23:37:30.445Z,45.25
2022-08-18T23:39:57.157Z,45.77
2022-08-18T23:42:23.864Z,45.83
2022-08-18T23:44:50.397Z,46.01
2022-08-18T23:47:19.532Z,46.17
2022-08-18T23:49:46.358Z,45.91
2022-08-18T23:52:12.879Z,46.08
2022-08-18T23:54:39.406Z,46.26
2022-08-18T23:57:05.927Z,46.38
2022-08-18T23:59:32.528Z,46.22
